createdAt,value
2018-12-16T00:01:04.903Z,25.97
2018-12-16T00:03:11.190Z,25.83
2018-12-16T00:05:16.685Z,30.73
2018-12-16T00:07:23.486Z,25.10
2018-12-16T00:09:34.882Z,27.90
2018-12-16T00:11:41.686Z,27.83
2018-12-16T00:13:48.951Z,24.97
2018-12-16T00:15:54.885Z,26.03
2018-12-16T00:18:01.283Z,26.43
2018-12-16T00:20:05.870Z,20.97
2018-12-16T00:22:15.271Z,26.80
2018-12-16T00:24:22.285Z,25.33
2018-12-16T00:26:38.503Z,25.37
2018-12-16T00:28:44.487Z,28.20
2018-12-16T00:30:49.846Z,28.07
2018-12-16T00:32:55.722Z,27.50
2018-12-16T00:35:02.294Z,25.43
2018-12-16T00:37:06.395Z,27.67
2018-12-16T00:39:10.582Z,27.67
2018-12-16T00:41:18.721Z,26.50
2018-12-16T00:43:22.771Z,25.47
2018-12-16T00:45:26.956Z,26.50
2018-12-16T00:47:31.702Z,27.57
2018-12-16T00:49:38.190Z,25.17
2018-12-16T00:51:43.870Z,26.80
2018-12-16T00:53:47.818Z,25.93
2018-12-16T00:55:53.514Z,26.97
2018-12-16T00:57:58.925Z,27.37
2018-12-16T01:00:03.875Z,26.03
2018-12-16T01:02:12.635Z,27.00
2018-12-16T01:04:17.815Z,27.67
2018-12-16T01:06:22.899Z,27.13
2018-12-16T01:08:26.989Z,27.13
2018-12-16T01:10:31.789Z,27.77
2018-12-16T01:12:37.810Z,25.77
2018-12-16T01:14:43.747Z,25.50
2018-12-16T01:16:47.789Z,26.93
2018-12-16T01:18:52.094Z,23.77
2018-12-16T01:20:56.166Z,26.00
2018-12-16T01:23:01.030Z,25.73
2018-12-16T01:25:05.427Z,26.73
2018-12-16T01:27:10.342Z,28.67
2018-12-16T01:29:14.326Z,26.97
2018-12-16T01:31:22.053Z,27.40
2018-12-16T01:33:26.045Z,25.33
2018-12-16T01:35:29.986Z,26.40
2018-12-16T01:37:37.051Z,25.60
2018-12-16T01:39:42.656Z,27.73
2018-12-16T01:41:47.672Z,26.73
2018-12-16T01:43:53.432Z,27.77
2018-12-16T01:45:57.639Z,28.67
2018-12-16T01:48:02.346Z,28.97
2018-12-16T01:50:07.460Z,27.73
2018-12-16T01:52:11.374Z,29.67
2018-12-16T01:54:16.011Z,28.67
2018-12-16T01:56:21.420Z,29.17
2018-12-16T01:58:25.422Z,27.87
2018-12-16T02:00:31.677Z,26.50
2018-12-16T02:02:36.729Z,28.90
2018-12-16T02:04:41.097Z,30.23
2018-12-16T02:06:45.106Z,28.13
2018-12-16T02:08:49.330Z,26.43
2018-12-16T02:10:53.883Z,29.80
2018-12-16T02:12:59.015Z,29.47
2018-12-16T02:15:13.250Z,26.17
2018-12-16T02:17:17.269Z,26.60
2018-12-16T02:19:21.373Z,27.83
2018-12-16T02:21:26.375Z,29.00
2018-12-16T02:23:30.515Z,30.13
2018-12-16T02:25:34.480Z,26.27
2018-12-16T02:27:40.446Z,30.27
2018-12-16T02:29:45.452Z,30.20
2018-12-16T02:31:49.422Z,30.30
2018-12-16T02:33:54.177Z,30.83
2018-12-16T02:35:58.963Z,28.83
2018-12-16T02:38:02.917Z,30.67
2018-12-16T02:40:06.979Z,31.83
2018-12-16T02:42:12.167Z,30.17
2018-12-16T02:44:16.264Z,29.70
2018-12-16T02:46:21.807Z,29.03
2018-12-16T02:48:25.868Z,27.43
2018-12-16T02:50:31.645Z,29.00
2018-12-16T02:52:36.236Z,29.70
2018-12-16T02:54:40.848Z,27.00
2018-12-16T02:56:45.143Z,23.63
2018-12-16T02:58:49.430Z,30.40
2018-12-16T03:00:53.371Z,26.17
2018-12-16T03:03:00.132Z,27.93
2018-12-16T03:05:04.630Z,29.97
2018-12-16T03:07:09.341Z,30.43
2018-12-16T03:09:13.812Z,30.50
2018-12-16T03:11:19.306Z,27.70
2018-12-16T03:13:23.883Z,32.70
2018-12-16T03:15:28.390Z,27.23
2018-12-16T03:17:33.279Z,27.57
2018-12-16T03:19:39.222Z,30.43
2018-12-16T03:21:44.924Z,31.67
2018-12-16T03:23:51.039Z,26.47
2018-12-16T03:25:57.503Z,28.33
2018-12-16T03:28:03.549Z,28.63
2018-12-16T03:30:13.163Z,30.93
2018-12-16T03:32:19.919Z,30.97
2018-12-16T03:34:25.223Z,31.27
2018-12-16T03:36:32.305Z,27.70
2018-12-16T03:38:36.705Z,28.57
2018-12-16T03:40:41.533Z,33.97
2018-12-16T03:42:51.623Z,31.23
2018-12-16T03:44:57.219Z,32.23
2018-12-16T03:47:01.217Z,32.80
2018-12-16T03:49:07.818Z,31.23
2018-12-16T03:51:11.797Z,33.97
2018-12-16T03:53:20.168Z,32.87
2018-12-16T03:55:23.350Z,33.40
2018-12-16T03:57:28.061Z,32.20
2018-12-16T03:59:32.739Z,29.67
2018-12-16T04:01:38.386Z,32.50
2018-12-16T04:03:43.496Z,32.63
2018-12-16T04:05:47.715Z,29.90
2018-12-16T04:07:53.791Z,30.57
2018-12-16T04:09:58.785Z,33.33
2018-12-16T04:12:03.976Z,32.00
2018-12-16T04:14:09.141Z,35.37
2018-12-16T04:16:14.964Z,32.90
2018-12-16T04:18:19.102Z,30.90
2018-12-16T04:20:23.662Z,34.90
2018-12-16T04:22:27.716Z,31.33
2018-12-16T04:24:33.990Z,34.70
2018-12-16T04:26:40.064Z,33.40
2018-12-16T04:28:44.259Z,32.77
2018-12-16T04:30:48.439Z,31.87
2018-12-16T04:32:53.342Z,30.57
2018-12-16T04:34:57.517Z,29.93
2018-12-16T04:37:01.446Z,35.57
2018-12-16T04:39:09.130Z,30.37
2018-12-16T04:41:13.187Z,32.43
2018-12-16T04:43:20.968Z,33.53
2018-12-16T04:45:25.483Z,34.57
2018-12-16T04:47:29.827Z,29.77
2018-12-16T04:49:33.994Z,33.37
2018-12-16T04:51:39.324Z,31.77
2018-12-16T04:53:44.183Z,35.37
2018-12-16T04:55:48.146Z,31.00
2018-12-16T04:57:52.776Z,32.30
2018-12-16T04:59:57.082Z,34.23
2018-12-16T05:02:01.249Z,32.60
2018-12-16T05:04:05.598Z,34.97
2018-12-16T05:06:09.973Z,35.60
2018-12-16T05:08:14.024Z,34.33
2018-12-16T05:10:31.349Z,33.60
2018-12-16T05:12:38.398Z,36.57
2018-12-16T05:14:43.798Z,34.17
2018-12-16T05:16:51.343Z,39.37
2018-12-16T05:18:56.109Z,40.67
2018-12-16T05:21:00.122Z,37.50
2018-12-16T05:23:04.455Z,40.53
2018-12-16T05:25:08.990Z,39.77
2018-12-16T05:27:13.154Z,41.77
2018-12-16T05:29:18.417Z,41.33
2018-12-16T05:31:24.026Z,42.63
2018-12-16T05:33:28.056Z,36.37
2018-12-16T05:35:38.059Z,43.93
2018-12-16T05:37:42.583Z,43.57
2018-12-16T05:39:47.057Z,41.10
2018-12-16T05:41:52.683Z,40.43
2018-12-16T05:43:58.698Z,46.07
2018-12-16T05:46:03.127Z,44.70
2018-12-16T05:48:07.563Z,44.30
2018-12-16T05:50:11.907Z,43.00
2018-12-16T05:52:15.916Z,44.67
2018-12-16T05:54:23.260Z,49.47
2018-12-16T05:56:27.837Z,44.80
2018-12-16T05:58:32.913Z,45.90
2018-12-16T06:00:38.345Z,42.40
2018-12-16T06:02:42.365Z,45.60
2018-12-16T06:04:47.204Z,41.73
2018-12-16T06:06:52.241Z,42.73
2018-12-16T06:08:57.750Z,43.50
2018-12-16T06:11:01.924Z,47.53
2018-12-16T06:13:07.142Z,43.37
2018-12-16T06:15:15.356Z,43.97
2018-12-16T06:17:23.027Z,40.87
2018-12-16T06:19:33.373Z,42.83
2018-12-16T06:21:46.764Z,44.40
2018-12-16T06:23:56.136Z,41.30
2018-12-16T06:26:05.572Z,43.10
2018-12-16T06:28:13.597Z,45.27
2018-12-16T06:30:22.990Z,44.37
2018-12-16T06:32:26.990Z,43.50
2018-12-16T06:34:31.543Z,45.87
2018-12-16T06:36:35.567Z,38.67
2018-12-16T06:38:41.060Z,41.57
2018-12-16T06:40:45.758Z,48.80
2018-12-16T06:42:50.461Z,46.07
2018-12-16T06:44:55.231Z,44.30
2018-12-16T06:46:59.837Z,43.73
2018-12-16T06:49:05.381Z,43.97
2018-12-16T06:51:10.253Z,45.33
2018-12-16T06:53:15.000Z,46.60
2018-12-16T06:55:19.203Z,45.30
2018-12-16T06:57:24.286Z,40.33
2018-12-16T06:59:29.799Z,43.77
2018-12-16T07:01:33.894Z,44.57
2018-12-16T07:03:39.226Z,42.83
2018-12-16T07:05:44.054Z,43.53
2018-12-16T07:07:50.085Z,44.17
2018-12-16T07:09:55.363Z,42.07
2018-12-16T07:12:00.253Z,43.80
2018-12-16T07:14:05.893Z,44.90
2018-12-16T07:16:11.260Z,43.00
2018-12-16T07:18:15.342Z,44.53
2018-12-16T07:20:19.418Z,43.87
2018-12-16T07:22:24.689Z,39.73
2018-12-16T07:24:28.786Z,45.80
2018-12-16T07:26:33.325Z,41.97
2018-12-16T07:28:37.676Z,47.07
2018-12-16T07:30:42.773Z,49.50
2018-12-16T07:32:48.957Z,44.73
2018-12-16T07:34:53.594Z,47.07
2018-12-16T07:37:00.132Z,46.67
2018-12-16T07:39:05.813Z,46.87
2018-12-16T07:41:11.803Z,55.33
2018-12-16T07:43:16.328Z,47.60
2018-12-16T07:45:23.395Z,47.83
2018-12-16T07:47:28.045Z,45.00
2018-12-16T07:49:33.142Z,43.83
2018-12-16T07:51:37.712Z,48.17
2018-12-16T07:53:42.265Z,44.87
2018-12-16T07:55:47.594Z,45.90
2018-12-16T07:57:55.025Z,43.43
2018-12-16T08:00:00.585Z,46.00
2018-12-16T08:02:05.356Z,48.00
2018-12-16T08:04:09.603Z,49.83
2018-12-16T08:06:15.042Z,44.60
2018-12-16T08:08:20.093Z,42.97
2018-12-16T08:10:24.489Z,46.83
2018-12-16T08:12:29.313Z,50.03
2018-12-16T08:14:34.458Z,47.60
2018-12-16T08:16:38.812Z,46.70
2018-12-16T08:18:44.462Z,44.20
2018-12-16T08:20:50.473Z,45.60
2018-12-16T08:22:55.437Z,48.07
2018-12-16T08:25:02.979Z,48.90
2018-12-16T08:27:08.703Z,47.57
2018-12-16T08:29:13.841Z,46.97
2018-12-16T08:31:20.364Z,49.47
2018-12-16T08:33:24.361Z,48.03
2018-12-16T08:35:29.211Z,45.57
2018-12-16T08:37:34.150Z,49.43
2018-12-16T08:39:39.717Z,49.67
2018-12-16T08:41:45.992Z,50.87
2018-12-16T08:43:52.035Z,46.37
2018-12-16T08:45:56.778Z,48.67
2018-12-16T08:48:00.911Z,45.30
2018-12-16T08:50:06.575Z,48.33
2018-12-16T08:52:10.826Z,43.77
2018-12-16T08:54:18.780Z,46.40
2018-12-16T08:56:23.675Z,44.53
2018-12-16T08:58:28.887Z,44.60
2018-12-16T09:00:33.652Z,46.80
2018-12-16T09:02:38.321Z,47.77
2018-12-16T09:04:43.343Z,48.63
2018-12-16T09:06:51.508Z,49.00
2018-12-16T09:08:58.446Z,47.23
2018-12-16T09:11:03.531Z,51.97
2018-12-16T09:13:10.065Z,48.43
2018-12-16T09:15:14.853Z,48.17
2018-12-16T09:17:19.650Z,41.17
2018-12-16T09:19:28.960Z,48.47
2018-12-16T09:21:34.025Z,48.70
2018-12-16T09:23:39.705Z,47.13
2018-12-16T09:25:47.344Z,43.93
2018-12-16T09:27:51.658Z,46.20
2018-12-16T09:29:56.649Z,47.00
2018-12-16T09:32:02.815Z,45.97
2018-12-16T09:34:07.561Z,47.43
2018-12-16T09:36:13.734Z,49.37
2018-12-16T09:38:19.064Z,44.77
2018-12-16T09:40:24.644Z,49.47
2018-12-16T09:42:29.114Z,50.10
2018-12-16T09:44:34.468Z,47.53
2018-12-16T09:46:39.653Z,45.00
2018-12-16T09:48:45.300Z,44.20
2018-12-16T09:50:50.434Z,48.27
2018-12-16T09:52:57.306Z,46.80
2018-12-16T09:55:02.452Z,47.97
2018-12-16T09:57:09.530Z,51.57
2018-12-16T09:59:15.847Z,48.23
2018-12-16T10:01:20.805Z,46.77
2018-12-16T10:03:26.381Z,43.87
2018-12-16T10:05:32.398Z,49.83
2018-12-16T10:07:37.313Z,46.43
2018-12-16T10:09:42.428Z,47.90
2018-12-16T10:11:47.566Z,46.37
2018-12-16T10:13:53.177Z,44.23
2018-12-16T10:15:57.447Z,49.97
2018-12-16T10:18:02.263Z,50.47
2018-12-16T10:20:10.417Z,47.53
2018-12-16T10:22:16.445Z,44.00
2018-12-16T10:24:22.370Z,49.67
2018-12-16T10:26:28.502Z,50.37
2018-12-16T10:28:32.747Z,51.00
2018-12-16T10:30:36.854Z,47.33
2018-12-16T10:32:44.338Z,47.37
2018-12-16T10:34:50.505Z,46.93
2018-12-16T10:36:56.226Z,45.67
2018-12-16T10:39:04.291Z,50.30
2018-12-16T10:41:09.730Z,50.47
2018-12-16T10:43:14.467Z,53.33
2018-12-16T10:45:19.233Z,52.40
2018-12-16T10:47:27.077Z,50.13
2018-12-16T10:49:31.894Z,50.20
2018-12-16T10:51:37.330Z,50.53
2018-12-16T10:53:42.315Z,48.60
2018-12-16T10:55:46.406Z,49.07
2018-12-16T10:57:51.589Z,46.97
2018-12-16T10:59:56.473Z,48.80
2018-12-16T11:02:00.572Z,47.70
2018-12-16T11:04:05.770Z,49.53
2018-12-16T11:06:12.660Z,52.17
2018-12-16T11:08:17.512Z,49.73
2018-12-16T11:10:22.742Z,47.83
2018-12-16T11:12:30.121Z,50.13
2018-12-16T11:14:36.569Z,47.63
2018-12-16T11:16:46.750Z,51.33
2018-12-16T11:18:52.351Z,47.40
2018-12-16T11:20:57.416Z,50.23
2018-12-16T11:23:01.600Z,46.63
2018-12-16T11:25:09.155Z,52.47
2018-12-16T11:27:14.065Z,47.93
2018-12-16T11:29:19.764Z,51.23
2018-12-16T11:31:30.733Z,51.80
2018-12-16T11:33:39.511Z,54.73
2018-12-16T11:35:53.985Z,57.00
2018-12-16T11:38:05.263Z,50.87
2018-12-16T11:43:19.811Z,50.17
2018-12-16T11:45:38.006Z,55.20
2018-12-16T11:50:18.034Z,54.20
2018-12-16T11:52:28.888Z,44.33
2018-12-16T11:54:43.831Z,46.57
2018-12-16T11:56:56.471Z,54.20
2018-12-16T11:59:12.908Z,49.13
2018-12-16T12:01:22.971Z,51.33
2018-12-16T12:03:31.892Z,45.83
2018-12-16T12:05:41.146Z,53.07
2018-12-16T12:07:52.246Z,52.73
2018-12-16T12:10:03.346Z,47.87
2018-12-16T12:12:13.955Z,50.10
2018-12-16T12:14:28.615Z,52.53
2018-12-16T12:16:47.223Z,50.90
2018-12-16T12:19:02.635Z,53.33
2018-12-16T12:21:13.959Z,53.67
2018-12-16T12:23:24.716Z,50.83
2018-12-16T12:25:32.953Z,54.57
2018-12-16T12:27:43.076Z,57.30
2018-12-16T12:29:54.368Z,52.13
2018-12-16T12:32:06.594Z,57.07
2018-12-16T12:34:13.991Z,51.57
2018-12-16T12:36:23.430Z,54.23
2018-12-16T12:38:32.703Z,56.03
2018-12-16T12:40:39.511Z,52.77
2018-12-16T12:42:49.441Z,56.97
2018-12-16T12:47:28.447Z,56.77
2018-12-16T12:49:45.181Z,51.23
2018-12-16T12:52:03.370Z,57.00
2018-12-16T12:54:10.353Z,57.10
2018-12-16T12:56:21.495Z,56.47
2018-12-16T12:58:37.601Z,52.30
2018-12-16T13:00:55.535Z,55.03
2018-12-16T13:03:07.284Z,54.30
2018-12-16T13:05:15.587Z,55.70
2018-12-16T13:09:49.888Z,58.17
2018-12-16T13:12:01.965Z,61.90
2018-12-16T13:14:09.199Z,70.27
2018-12-16T13:16:17.577Z,60.93
2018-12-16T13:18:28.560Z,60.37
2018-12-16T13:20:46.521Z,64.50
2018-12-16T13:22:58.562Z,65.93
2018-12-16T13:25:18.068Z,56.40
2018-12-16T13:27:28.048Z,64.27
2018-12-16T13:29:36.845Z,66.13
2018-12-16T13:31:52.076Z,65.07
2018-12-16T13:34:00.437Z,60.50
2018-12-16T13:36:14.494Z,65.97
2018-12-16T13:38:23.440Z,66.83
2018-12-16T13:40:36.435Z,65.67
2018-12-16T13:42:43.695Z,66.67
2018-12-16T13:44:52.119Z,69.33
2018-12-16T13:47:00.491Z,66.30
2018-12-16T13:49:11.620Z,72.27
2018-12-16T13:51:23.451Z,71.03
2018-12-16T13:53:35.570Z,69.67
2018-12-16T13:55:49.486Z,69.93
2018-12-16T13:57:59.025Z,69.27
2018-12-16T14:00:06.221Z,75.17
2018-12-16T14:02:18.353Z,75.10
2018-12-16T14:04:30.384Z,74.40
2018-12-16T14:06:42.902Z,74.97
2018-12-16T14:08:52.869Z,72.23
2018-12-16T14:11:00.722Z,66.50
2018-12-16T14:13:09.666Z,72.57
2018-12-16T14:15:25.713Z,66.10
2018-12-16T14:17:37.987Z,68.87
2018-12-16T14:19:52.821Z,69.90
2018-12-16T14:22:05.671Z,67.30
2018-12-16T14:24:21.506Z,71.47
2018-12-16T14:26:28.666Z,64.27
2018-12-16T14:28:43.253Z,70.63
2018-12-16T14:30:55.081Z,70.13
2018-12-16T14:33:08.730Z,72.20
2018-12-16T14:35:32.033Z,72.93
2018-12-16T14:37:44.933Z,76.77
2018-12-16T14:39:54.849Z,73.60
2018-12-16T14:42:06.632Z,66.80
2018-12-16T14:44:15.913Z,69.10
2018-12-16T14:46:22.317Z,73.07
2018-12-16T14:48:41.974Z,71.83
2018-12-16T14:51:07.012Z,75.73
2018-12-16T14:55:38.409Z,73.27
2018-12-16T14:57:50.142Z,77.60
2018-12-16T15:00:08.388Z,83.10
2018-12-16T15:02:16.663Z,75.97
2018-12-16T15:04:26.973Z,76.20
2018-12-16T15:06:37.373Z,78.47
2018-12-16T15:08:58.313Z,74.47
2018-12-16T15:11:08.228Z,77.03
2018-12-16T15:13:17.465Z,78.60
2018-12-16T15:15:32.476Z,76.03
2018-12-16T15:17:49.530Z,77.97
2018-12-16T15:19:59.960Z,81.50
2018-12-16T15:22:19.096Z,78.10
2018-12-16T15:24:28.246Z,81.03
2018-12-16T15:26:38.179Z,75.03
2018-12-16T15:28:51.608Z,79.73
2018-12-16T15:31:08.800Z,83.37
2018-12-16T15:33:20.304Z,86.33
2018-12-16T15:35:29.486Z,77.07
2018-12-16T15:37:48.917Z,73.43
2018-12-16T15:39:55.961Z,76.73
2018-12-16T15:42:12.938Z,69.23
2018-12-16T15:44:22.402Z,74.53
2018-12-16T15:46:42.069Z,73.80
2018-12-16T15:48:46.655Z,71.67
2018-12-16T15:50:52.614Z,70.33
2018-12-16T15:52:59.393Z,77.13
2018-12-16T15:55:05.318Z,76.57
2018-12-16T15:57:11.885Z,70.57
2018-12-16T15:59:17.026Z,74.00
2018-12-16T16:01:29.381Z,76.63
2018-12-16T16:03:45.275Z,75.43
2018-12-16T16:05:55.619Z,71.70
2018-12-16T16:08:18.570Z,68.43
2018-12-16T16:10:26.624Z,73.73
2018-12-16T16:12:41.490Z,72.63
2018-12-16T16:15:03.860Z,70.70
2018-12-16T16:17:13.685Z,75.90
2018-12-16T16:19:23.083Z,81.27
2018-12-16T16:21:32.262Z,80.67
2018-12-16T16:23:42.893Z,83.47
2018-12-16T16:25:55.890Z,82.63
2018-12-16T16:28:06.960Z,90.23
2018-12-16T16:30:22.719Z,79.03
2018-12-16T16:32:31.793Z,87.17
2018-12-16T16:34:44.738Z,91.60
2018-12-16T16:36:52.817Z,86.13
2018-12-16T16:39:05.181Z,87.40
2018-12-16T16:41:22.033Z,92.10
2018-12-16T16:43:32.537Z,91.37
2018-12-16T16:45:41.473Z,84.43
2018-12-16T16:47:51.292Z,91.17
2018-12-16T16:50:07.450Z,84.27
2018-12-16T16:52:17.262Z,87.13
2018-12-16T16:54:29.510Z,79.60
2018-12-16T16:56:37.377Z,91.20
2018-12-16T16:58:48.565Z,84.00
2018-12-16T17:01:05.443Z,82.73
2018-12-16T17:03:15.447Z,85.43
2018-12-16T17:05:31.538Z,80.17
2018-12-16T17:07:44.326Z,79.93
2018-12-16T17:09:56.328Z,78.43
2018-12-16T17:12:04.873Z,79.43
2018-12-16T17:14:16.907Z,83.23
2018-12-16T17:16:26.390Z,78.00
2018-12-16T17:18:39.491Z,74.77
2018-12-16T17:20:52.756Z,71.00
2018-12-16T17:23:03.385Z,73.27
2018-12-16T17:25:17.200Z,71.83
2018-12-16T17:27:32.756Z,68.80
2018-12-16T17:29:44.002Z,72.77
2018-12-16T17:31:54.412Z,72.50
2018-12-16T17:34:03.917Z,70.63
2018-12-16T17:36:13.718Z,70.07
2018-12-16T17:38:27.533Z,72.13
2018-12-16T17:40:47.626Z,66.97
2018-12-16T17:42:57.619Z,66.27
2018-12-16T17:47:23.033Z,72.80
2018-12-16T17:49:36.842Z,67.63
2018-12-16T17:52:04.821Z,70.73
2018-12-16T17:54:15.068Z,75.70
2018-12-16T17:56:25.761Z,75.50
2018-12-16T17:58:37.412Z,68.43
2018-12-16T18:00:51.665Z,76.87
2018-12-16T18:03:00.646Z,73.23
2018-12-16T18:05:11.659Z,72.20
2018-12-16T18:07:26.512Z,68.80
2018-12-16T18:09:37.316Z,68.53
2018-12-16T18:11:49.265Z,68.67
2018-12-16T18:13:59.440Z,62.90
2018-12-16T18:16:09.392Z,64.60
2018-12-16T18:18:20.613Z,66.83
2018-12-16T18:20:30.575Z,69.00
2018-12-16T18:22:42.854Z,68.47
2018-12-16T18:24:57.141Z,65.93
2018-12-16T18:29:40.271Z,67.57
2018-12-16T18:31:49.120Z,68.80
2018-12-16T18:33:59.317Z,70.47
2018-12-16T18:36:09.925Z,65.70
2018-12-16T18:38:23.089Z,69.87
2018-12-16T18:40:30.793Z,70.13
2018-12-16T18:42:44.968Z,75.30
2018-12-16T18:44:55.930Z,68.73
2018-12-16T18:47:10.744Z,75.70
2018-12-16T18:49:25.257Z,69.07
2018-12-16T18:51:36.639Z,76.43
2018-12-16T18:53:43.462Z,77.67
2018-12-16T18:55:53.071Z,77.20
2018-12-16T18:58:05.176Z,71.40
2018-12-16T19:00:17.383Z,73.37
2018-12-16T19:02:26.086Z,73.70
2018-12-16T19:04:36.759Z,77.83
2018-12-16T19:06:50.296Z,70.17
2018-12-16T19:09:01.298Z,72.00
2018-12-16T19:11:18.918Z,75.97
2018-12-16T19:13:28.093Z,71.93
2018-12-16T19:15:45.602Z,70.77
2018-12-16T19:18:03.525Z,69.83
2018-12-16T19:20:16.577Z,71.43
2018-12-16T19:22:24.433Z,71.73
2018-12-16T19:24:35.509Z,69.07
2018-12-16T19:26:47.015Z,73.87
2018-12-16T19:28:57.255Z,65.77
2018-12-16T19:31:09.418Z,71.77
2018-12-16T19:33:23.702Z,66.43
2018-12-16T19:35:32.402Z,76.43
2018-12-16T19:37:43.700Z,70.87
2018-12-16T19:39:53.014Z,75.67
2018-12-16T19:42:03.872Z,79.30
2018-12-16T19:44:14.483Z,85.70
2018-12-16T19:46:29.651Z,81.43
2018-12-16T19:48:45.363Z,89.40
2018-12-16T19:50:57.388Z,81.13
2018-12-16T19:53:12.363Z,94.40
2018-12-16T19:55:24.829Z,99.13
2018-12-16T19:59:49.139Z,100.00
2018-12-16T20:01:59.535Z,99.93
2018-12-16T20:04:12.693Z,94.77
2018-12-16T20:06:24.653Z,99.27
2018-12-16T20:08:33.787Z,94.50
2018-12-16T20:10:54.056Z,92.00
2018-12-16T20:13:02.801Z,100.60
2018-12-16T20:15:16.995Z,108.13
2018-12-16T20:17:26.548Z,124.43
2018-12-16T20:19:37.669Z,135.60
2018-12-16T20:21:46.585Z,143.17
2018-12-16T20:23:58.597Z,165.93
2018-12-16T20:26:11.989Z,223.97
2018-12-16T20:28:22.936Z,201.83
2018-12-16T20:30:39.632Z,236.47
2018-12-16T20:32:48.732Z,219.40
2018-12-16T20:35:01.698Z,202.90
2018-12-16T20:37:11.388Z,238.57
2018-12-16T20:39:29.175Z,219.63
2018-12-16T20:41:39.562Z,318.33
2018-12-16T20:43:48.242Z,249.63
2018-12-16T20:46:01.666Z,284.93
2018-12-16T20:48:15.449Z,228.43
2018-12-16T20:50:36.076Z,265.07
2018-12-16T20:52:47.357Z,256.37
2018-12-16T20:54:57.756Z,249.57
2018-12-16T20:57:06.489Z,326.03
2018-12-16T20:59:19.779Z,354.77
2018-12-16T21:01:49.179Z,334.33
2018-12-16T21:04:06.348Z,347.30
2018-12-16T21:06:17.942Z,449.63
2018-12-16T21:08:29.284Z,441.00
2018-12-16T21:10:49.079Z,480.37
2018-12-16T21:13:11.859Z,649.27
2018-12-16T21:15:25.500Z,637.60
2018-12-16T21:17:44.781Z,503.10
2018-12-16T21:19:55.518Z,572.87
2018-12-16T21:22:05.602Z,819.77
2018-12-16T21:26:32.139Z,615.70
2018-12-16T21:28:45.637Z,923.10
2018-12-16T21:31:06.635Z,648.33
2018-12-16T21:33:17.356Z,842.03
2018-12-16T21:35:33.950Z,750.50
2018-12-16T21:37:45.836Z,639.97
2018-12-16T21:39:58.034Z,610.10
2018-12-16T21:42:05.541Z,571.07
2018-12-16T21:44:15.401Z,346.13
2018-12-16T21:46:29.584Z,617.60
2018-12-16T21:48:42.575Z,510.03
2018-12-16T21:50:55.139Z,440.03
2018-12-16T21:53:05.007Z,477.40
2018-12-16T21:55:20.837Z,702.73
2018-12-16T21:57:33.178Z,430.13
2018-12-16T21:59:46.643Z,366.27
2018-12-16T22:01:55.275Z,157.97
2018-12-16T22:04:02.571Z,222.10
2018-12-16T22:06:13.679Z,283.47
2018-12-16T22:08:25.770Z,210.63
2018-12-16T22:10:32.898Z,118.37
2018-12-16T22:12:45.722Z,184.97
2018-12-16T22:14:54.278Z,146.57
2018-12-16T22:17:03.884Z,196.63
2018-12-16T22:19:14.748Z,163.13
2018-12-16T22:23:40.508Z,153.80
2018-12-16T22:25:49.357Z,168.00
2018-12-16T22:27:59.661Z,264.80
2018-12-16T22:30:07.062Z,145.33
2018-12-16T22:32:15.437Z,226.27
2018-12-16T22:34:21.822Z,176.63
2018-12-16T22:36:33.012Z,177.20
2018-12-16T22:38:59.456Z,212.30
2018-12-16T22:41:11.726Z,156.73
2018-12-16T22:43:25.621Z,155.27
2018-12-16T22:45:33.497Z,142.10
2018-12-16T22:47:43.837Z,156.93
2018-12-16T22:49:51.975Z,155.60
2018-12-16T22:52:02.414Z,158.93
2018-12-16T22:54:16.431Z,117.43
2018-12-16T22:56:26.825Z,107.47
2018-12-16T22:58:36.187Z,112.13
2018-12-16T23:00:50.380Z,111.87
2018-12-16T23:03:01.525Z,109.77
2018-12-16T23:05:13.508Z,107.77
2018-12-16T23:07:37.596Z,108.57
2018-12-16T23:09:50.320Z,114.53
2018-12-16T23:12:02.921Z,109.43
2018-12-16T23:14:11.335Z,92.30
2018-12-16T23:16:22.823Z,86.53
2018-12-16T23:18:32.315Z,95.50
2018-12-16T23:20:39.368Z,104.60
2018-12-16T23:22:50.835Z,110.03
2018-12-16T23:25:07.452Z,96.43
2018-12-16T23:27:15.656Z,94.03
2018-12-16T23:29:26.066Z,103.63
2018-12-16T23:31:38.105Z,97.47
2018-12-16T23:33:54.002Z,110.30
2018-12-16T23:36:02.887Z,105.53
2018-12-16T23:38:12.762Z,106.53
2018-12-16T23:40:23.736Z,106.77
2018-12-16T23:42:36.155Z,117.83
2018-12-16T23:44:48.462Z,106.87
2018-12-16T23:46:58.865Z,107.43
2018-12-16T23:49:09.452Z,107.87
2018-12-16T23:51:21.782Z,101.27
2018-12-16T23:53:33.914Z,125.20
2018-12-16T23:55:44.810Z,128.57
2018-12-16T23:58:01.028Z,145.10
